createdAt,value
2022-08-04T00:00:59.501Z,4.80
2022-08-04T00:03:41.173Z,8.15
2022-08-04T00:06:16.922Z,5.63
2022-08-04T00:08:50.571Z,6.60
2022-08-04T00:11:22.483Z,8.10
2022-08-04T00:14:04.992Z,8.75
2022-08-04T00:16:37.796Z,4.22
2022-08-04T00:19:11.798Z,5.00
2022-08-04T00:21:42.010Z,4.70
2022-08-04T00:24:14.458Z,7.78
2022-08-04T00:26:41.899Z,5.05
2022-08-04T00:29:08.552Z,7.10
2022-08-04T00:31:56.475Z,5.93
2022-08-04T00:34:27.242Z,4.90
2022-08-04T00:36:54.449Z,4.15
2022-08-04T00:39:21.388Z,4.80
2022-08-04T00:42:24.461Z,6.03
2022-08-04T00:45:09.609Z,7.60
2022-08-04T00:47:50.886Z,7.50
2022-08-04T00:50:44.078Z,7.45
2022-08-04T00:53:49.961Z,5.45
2022-08-04T00:58:52.205Z,8.45
2022-08-04T01:01:37.598Z,7.68
2022-08-04T01:06:58.674Z,4.65
2022-08-04T01:09:45.423Z,5.85
2022-08-04T01:12:33.647Z,6.40
2022-08-04T01:15:06.810Z,4.22
2022-08-04T01:17:36.449Z,5.75
2022-08-04T01:20:08.979Z,5.07
2022-08-04T01:23:10.121Z,6.70
2022-08-04T01:25:54.150Z,5.10
2022-08-04T01:28:30.984Z,4.07
2022-08-04T01:34:03.257Z,5.93
2022-08-04T01:36:24.890Z,6.10
2022-08-04T01:38:54.140Z,6.32
2022-08-04T01:41:32.223Z,8.38
2022-08-04T01:44:04.301Z,6.00
2022-08-04T01:46:33.869Z,6.35
2022-08-04T01:49:02.686Z,5.53
2022-08-04T01:51:34.986Z,4.95
2022-08-04T01:54:09.220Z,6.10
2022-08-04T01:56:36.747Z,5.17
2022-08-04T01:59:03.874Z,7.78
2022-08-04T02:01:36.519Z,7.30
2022-08-04T02:04:21.504Z,8.77
2022-08-04T02:06:59.253Z,6.35
2022-08-04T02:09:28.786Z,6.05
2022-08-04T02:12:03.798Z,5.65
2022-08-04T02:15:13.798Z,8.98
2022-08-04T02:17:43.391Z,8.93
2022-08-04T02:20:23.162Z,6.40
2022-08-04T02:22:54.990Z,7.28
2022-08-04T02:25:26.872Z,5.90
2022-08-04T02:28:28.162Z,9.20
2022-08-04T02:30:57.289Z,7.88
2022-08-04T02:33:38.690Z,9.20
2022-08-04T02:36:09.273Z,5.43
2022-08-04T02:39:00.120Z,8.00
2022-08-04T02:41:28.917Z,9.27
2022-08-04T02:44:02.283Z,8.57
2022-08-04T02:46:29.898Z,8.02
2022-08-04T02:48:57.315Z,8.48
2022-08-04T02:51:28.833Z,8.25
2022-08-04T02:54:01.689Z,9.32
2022-08-04T02:56:31.530Z,6.22
2022-08-04T02:59:03.778Z,8.80
2022-08-04T03:01:31.572Z,10.27
2022-08-04T03:04:24.689Z,10.02
2022-08-04T03:07:22.975Z,8.85
2022-08-04T03:10:10.632Z,7.78
2022-08-04T03:13:01.831Z,8.90
2022-08-04T03:15:46.446Z,8.60
2022-08-04T03:18:31.839Z,8.10
2022-08-04T03:21:36.918Z,8.55
2022-08-04T03:24:26.628Z,5.38
2022-08-04T03:27:10.874Z,8.15
2022-08-04T03:29:56.246Z,6.72
2022-08-04T03:32:41.575Z,7.90
2022-08-04T03:35:32.821Z,7.07
2022-08-04T03:38:17.528Z,8.20
2022-08-04T03:41:57.391Z,7.75
2022-08-04T03:44:38.950Z,5.40
2022-08-04T03:47:29.949Z,8.30
2022-08-04T03:50:12.997Z,7.50
2022-08-04T03:53:20.389Z,7.43
2022-08-04T03:55:54.722Z,6.57
2022-08-04T03:58:40.542Z,9.43
2022-08-04T04:01:13.262Z,8.20
2022-08-04T04:04:18.102Z,7.32
2022-08-04T04:07:35.690Z,7.00
2022-08-04T04:13:33.005Z,5.45
2022-08-04T04:16:26.451Z,7.78
2022-08-04T04:19:20.523Z,7.00
2022-08-04T04:22:11.692Z,8.98
2022-08-04T04:25:03.451Z,6.40
2022-08-04T04:28:44.456Z,7.40
2022-08-04T04:31:27.924Z,6.28
2022-08-04T04:34:16.946Z,6.28
2022-08-04T04:37:17.712Z,9.00
2022-08-04T04:40:06.161Z,7.13
2022-08-04T04:42:35.425Z,10.48
2022-08-04T04:45:21.030Z,9.27
2022-08-04T04:48:08.257Z,5.65
2022-08-04T04:50:46.330Z,8.05
2022-08-04T04:53:45.103Z,5.82
2022-08-04T04:56:39.528Z,7.45
2022-08-04T04:59:11.431Z,9.10
2022-08-04T05:02:00.866Z,10.20
2022-08-04T05:05:04.907Z,11.65
2022-08-04T05:07:40.231Z,9.85
2022-08-04T05:10:33.626Z,11.00
2022-08-04T05:14:36.438Z,13.98
2022-08-04T05:16:35.076Z,10.07
2022-08-04T05:19:23.313Z,12.95
2022-08-04T05:22:04.277Z,15.05
2022-08-04T05:24:37.634Z,11.40
2022-08-04T05:27:12.090Z,9.23
2022-08-04T05:29:47.103Z,9.63
2022-08-04T05:32:16.820Z,11.02
2022-08-04T05:34:54.087Z,11.23
2022-08-04T05:37:22.630Z,11.60
2022-08-04T05:40:04.486Z,13.70
2022-08-04T05:42:34.869Z,13.50
2022-08-04T05:45:03.153Z,13.88
2022-08-04T05:47:32.017Z,10.73
2022-08-04T05:50:02.021Z,13.88
2022-08-04T05:52:31.572Z,12.55
2022-08-04T05:54:59.573Z,14.32
2022-08-04T05:57:26.828Z,14.25
2022-08-04T05:59:58.785Z,11.80
2022-08-04T06:02:27.918Z,15.35
2022-08-04T06:04:56.489Z,12.02
2022-08-04T06:07:23.364Z,14.70
2022-08-04T06:09:51.069Z,14.32
2022-08-04T06:13:00.869Z,12.52
2022-08-04T06:15:28.386Z,14.40
2022-08-04T06:19:40.149Z,12.70
2022-08-04T06:20:53.092Z,12.25
2022-08-04T06:23:26.065Z,13.75
2022-08-04T06:25:57.080Z,11.52
2022-08-04T06:28:24.732Z,11.93
2022-08-04T06:30:53.076Z,10.75
2022-08-04T06:33:54.485Z,12.95
2022-08-04T06:36:20.770Z,12.85
2022-08-04T06:38:47.827Z,16.10
2022-08-04T06:41:25.765Z,12.80
2022-08-04T06:43:53.951Z,15.25
2022-08-04T06:46:21.453Z,12.27
2022-08-04T06:48:50.790Z,16.75
2022-08-04T06:51:28.658Z,11.57
2022-08-04T06:54:04.805Z,11.95
2022-08-04T06:56:35.041Z,11.77
2022-08-04T06:59:03.577Z,13.05
2022-08-04T07:01:31.111Z,9.68
2022-08-04T07:04:01.114Z,11.73
2022-08-04T07:06:27.819Z,8.20
2022-08-04T07:08:56.386Z,10.32
2022-08-04T07:11:24.851Z,10.18
2022-08-04T07:13:53.786Z,12.38
2022-08-04T07:16:22.010Z,11.77
2022-08-04T07:18:57.667Z,9.77
2022-08-04T07:21:24.877Z,14.30
2022-08-04T07:23:53.950Z,11.40
2022-08-04T07:26:26.410Z,11.82
2022-08-04T07:28:53.006Z,13.48
2022-08-04T07:31:34.593Z,11.20
2022-08-04T07:34:21.083Z,14.45
2022-08-04T07:36:53.002Z,17.55
2022-08-04T07:39:29.636Z,15.33
2022-08-04T07:41:59.043Z,14.07
2022-08-04T07:44:27.918Z,13.25
2022-08-04T07:46:55.099Z,12.70
2022-08-04T07:49:56.571Z,11.85
2022-08-04T07:52:08.788Z,11.25
2022-08-04T07:54:40.008Z,16.02
2022-08-04T07:57:06.700Z,10.35
2022-08-04T07:59:35.202Z,14.45
2022-08-04T08:02:02.563Z,14.35
2022-08-04T08:04:30.063Z,16.75
2022-08-04T08:06:57.716Z,13.88
2022-08-04T08:09:24.568Z,11.18
2022-08-04T08:12:35.441Z,13.63
2022-08-04T08:14:41.385Z,11.35
2022-08-04T08:17:08.166Z,12.32
2022-08-04T08:19:35.653Z,9.55
2022-08-04T08:22:02.883Z,11.38
2022-08-04T08:24:32.509Z,10.43
2022-08-04T08:27:00.296Z,10.50
2022-08-04T08:29:29.599Z,10.57
2022-08-04T08:32:01.482Z,8.57
2022-08-04T08:34:33.016Z,10.00
2022-08-04T08:37:09.701Z,9.43
2022-08-04T08:39:43.018Z,8.75
2022-08-04T08:42:34.234Z,7.97
2022-08-04T08:45:26.247Z,11.75
2022-08-04T08:48:31.358Z,9.88
2022-08-04T08:51:47.683Z,11.00
2022-08-04T08:54:35.784Z,8.90
2022-08-04T08:57:17.310Z,14.25
2022-08-04T09:00:07.464Z,9.85
2022-08-04T09:02:44.896Z,7.47
2022-08-04T09:05:36.521Z,9.77
2022-08-04T09:08:08.878Z,7.15
2022-08-04T09:11:05.894Z,9.43
2022-08-04T09:13:41.578Z,8.38
2022-08-04T09:16:19.153Z,7.93
2022-08-04T09:19:04.461Z,10.25
2022-08-04T09:21:41.958Z,12.52
2022-08-04T09:24:36.449Z,11.85
2022-08-04T09:27:09.842Z,9.95
2022-08-04T09:29:39.324Z,12.95
2022-08-04T09:32:41.353Z,15.65
2022-08-04T09:35:33.790Z,8.63
2022-08-04T09:38:19.177Z,9.90
2022-08-04T09:40:53.449Z,10.38
2022-08-04T09:44:43.103Z,10.00
2022-08-04T09:47:10.590Z,8.90
2022-08-04T09:49:43.722Z,11.53
2022-08-04T09:52:25.397Z,10.18
2022-08-04T09:55:20.837Z,7.30
2022-08-04T09:57:58.190Z,10.10
2022-08-04T10:00:40.435Z,9.02
2022-08-04T10:03:19.669Z,6.95
2022-08-04T10:05:55.823Z,8.27
2022-08-04T10:08:57.162Z,8.05
2022-08-04T10:11:55.579Z,6.90
2022-08-04T10:14:48.003Z,7.53
2022-08-04T10:17:35.883Z,6.20
2022-08-04T10:20:44.296Z,4.97
2022-08-04T10:23:55.082Z,8.50
2022-08-04T10:26:26.191Z,7.85
2022-08-04T10:29:02.492Z,10.98
2022-08-04T10:31:35.519Z,11.60
2022-08-04T10:34:29.600Z,11.32
2022-08-04T10:37:04.367Z,6.78
2022-08-04T10:40:06.956Z,10.93
2022-08-04T10:42:37.422Z,4.60
2022-08-04T10:45:19.769Z,11.50
2022-08-04T10:48:02.481Z,7.22
2022-08-04T10:50:29.977Z,7.35
2022-08-04T10:53:03.563Z,10.10
2022-08-04T10:56:06.450Z,9.07
2022-08-04T10:58:59.910Z,7.80
2022-08-04T11:01:50.742Z,6.35
2022-08-04T11:04:37.715Z,15.77
2022-08-04T11:07:04.867Z,8.77
2022-08-04T11:09:33.944Z,7.82
2022-08-04T11:12:12.810Z,12.70
2022-08-04T11:14:53.280Z,10.52
2022-08-04T11:17:26.236Z,10.73
2022-08-04T11:23:13.994Z,7.53
2022-08-04T11:25:52.971Z,7.38
2022-08-04T11:28:30.549Z,9.02
2022-08-04T11:31:05.691Z,6.20
2022-08-04T11:34:16.046Z,15.20
2022-08-04T11:37:14.014Z,11.80
2022-08-04T11:39:47.303Z,10.70
2022-08-04T11:42:22.019Z,8.90
2022-08-04T11:45:04.848Z,9.65
2022-08-04T11:47:54.427Z,12.05
2022-08-04T11:50:27.493Z,7.85
2022-08-04T11:52:57.828Z,8.25
2022-08-04T11:55:27.087Z,9.30
2022-08-04T11:57:54.881Z,6.25
2022-08-04T12:00:22.712Z,7.63
2022-08-04T12:03:18.704Z,6.93
2022-08-04T12:06:15.660Z,7.18
2022-08-04T12:09:22.270Z,6.32
2022-08-04T12:12:13.761Z,6.88
2022-08-04T12:14:55.214Z,7.43
2022-08-04T12:17:53.448Z,4.25
2022-08-04T12:20:32.194Z,4.47
2022-08-04T12:23:17.488Z,4.13
2022-08-04T12:25:47.753Z,2.75
2022-08-04T12:28:23.383Z,3.67
2022-08-04T12:31:01.050Z,3.05
2022-08-04T12:34:04.423Z,4.60
2022-08-04T12:36:37.324Z,7.18
2022-08-04T12:39:15.783Z,6.82
2022-08-04T12:42:02.327Z,5.75
2022-08-04T12:44:37.710Z,5.43
2022-08-04T12:47:26.592Z,4.97
2022-08-04T12:50:02.300Z,5.45
2022-08-04T12:53:04.349Z,6.22
2022-08-04T12:55:35.131Z,5.53
2022-08-04T12:58:04.177Z,4.50
2022-08-04T13:00:40.808Z,5.88
2022-08-04T13:03:16.934Z,8.15
2022-08-04T13:05:45.085Z,7.53
2022-08-04T13:08:12.911Z,7.85
2022-08-04T13:10:47.824Z,8.57
2022-08-04T13:13:29.008Z,7.03
2022-08-04T13:16:00.493Z,10.57
2022-08-04T13:18:32.045Z,8.90
2022-08-04T13:21:20.108Z,8.70
2022-08-04T13:24:10.560Z,9.80
2022-08-04T13:26:55.257Z,12.88
2022-08-04T13:30:00.574Z,9.43
2022-08-04T13:32:22.229Z,7.00
2022-08-04T13:34:52.782Z,6.80
2022-08-04T13:37:26.752Z,6.72
2022-08-04T13:39:56.404Z,6.80
2022-08-04T13:42:26.513Z,6.25
2022-08-04T13:44:59.651Z,8.70
2022-08-04T13:47:34.036Z,5.72
2022-08-04T13:50:22.506Z,7.28
2022-08-04T13:52:59.354Z,5.82
2022-08-04T13:55:35.160Z,5.55
2022-08-04T13:58:09.240Z,7.10
2022-08-04T14:00:44.108Z,9.43
2022-08-04T14:03:24.140Z,6.53
2022-08-04T14:06:19.147Z,5.45
2022-08-04T14:08:51.701Z,8.47
2022-08-04T14:12:08.881Z,4.75
2022-08-04T14:14:33.801Z,5.47
2022-08-04T14:17:19.965Z,5.00
2022-08-04T14:19:47.705Z,5.20
2022-08-04T14:22:26.565Z,6.35
2022-08-04T14:25:15.811Z,6.70
2022-08-04T14:27:43.179Z,9.73
2022-08-04T14:30:32.170Z,5.65
2022-08-04T14:33:59.622Z,7.75
2022-08-04T14:36:04.182Z,8.15
2022-08-04T14:38:57.370Z,7.50
2022-08-04T14:41:29.569Z,6.53
2022-08-04T14:44:02.375Z,10.68
2022-08-04T14:46:37.015Z,6.25
2022-08-04T14:49:03.748Z,8.15
2022-08-04T14:51:55.256Z,6.03
2022-08-04T14:54:30.572Z,8.65
2022-08-04T14:57:08.670Z,7.88
2022-08-04T14:59:59.464Z,6.95
2022-08-04T15:02:30.041Z,6.55
2022-08-04T15:04:57.785Z,4.57
2022-08-04T15:07:25.478Z,7.28
2022-08-04T15:09:52.466Z,6.28
2022-08-04T15:12:20.273Z,9.27
2022-08-04T15:14:48.634Z,6.53
2022-08-04T15:17:30.220Z,10.48
2022-08-04T15:19:57.262Z,6.47
2022-08-04T15:22:24.079Z,6.82
2022-08-04T15:24:56.033Z,8.90
2022-08-04T15:27:32.507Z,5.38
2022-08-04T15:30:08.323Z,5.40
2022-08-04T15:32:38.421Z,5.85
2022-08-04T15:35:13.585Z,4.88
2022-08-04T15:37:49.485Z,8.10
2022-08-04T15:40:33.311Z,7.28
2022-08-04T15:43:29.941Z,7.00
2022-08-04T15:46:30.759Z,6.45
2022-08-04T15:48:47.341Z,6.78
2022-08-04T15:51:31.794Z,7.25
2022-08-04T15:54:02.528Z,4.30
2022-08-04T15:56:30.819Z,3.10
2022-08-04T15:58:57.651Z,3.03
2022-08-04T16:01:24.834Z,3.60
2022-08-04T16:04:25.130Z,4.53
2022-08-04T16:07:04.055Z,4.20
2022-08-04T16:09:45.139Z,5.88
2022-08-04T16:12:54.749Z,4.30
2022-08-04T16:15:56.132Z,4.93
2022-08-04T16:18:30.272Z,3.38
2022-08-04T16:21:03.903Z,4.35
2022-08-04T16:23:56.828Z,5.57
2022-08-04T16:26:45.259Z,2.30
2022-08-04T16:29:24.819Z,3.70
2022-08-04T16:32:12.636Z,3.17
2022-08-04T16:34:54.665Z,6.65
2022-08-04T16:37:29.069Z,6.88
2022-08-04T16:40:37.625Z,5.47
2022-08-04T16:43:16.752Z,6.10
2022-08-04T16:45:55.498Z,3.97
2022-08-04T16:48:29.116Z,3.42
2022-08-04T16:51:03.233Z,10.88
2022-08-04T16:54:02.870Z,4.18
2022-08-04T16:56:36.164Z,5.43
2022-08-04T16:59:11.485Z,4.05
2022-08-04T17:01:49.989Z,4.15
2022-08-04T17:04:36.561Z,5.78
2022-08-04T17:07:06.289Z,4.10
2022-08-04T17:09:33.219Z,4.88
2022-08-04T17:12:02.235Z,6.75
2022-08-04T17:14:31.348Z,4.70
2022-08-04T17:17:01.141Z,5.95
2022-08-04T17:19:27.872Z,6.68
2022-08-04T17:22:03.040Z,5.35
2022-08-04T17:24:35.084Z,7.85
2022-08-04T17:27:01.877Z,4.78
2022-08-04T17:29:42.884Z,5.40
2022-08-04T17:32:20.966Z,7.15
2022-08-04T17:35:03.586Z,5.82
2022-08-04T17:37:39.439Z,4.93
2022-08-04T17:40:11.272Z,5.75
2022-08-04T17:42:41.682Z,6.50
2022-08-04T17:48:00.772Z,7.10
2022-08-04T17:50:35.885Z,3.67
2022-08-04T17:53:11.713Z,4.68
2022-08-04T17:55:47.150Z,2.05
2022-08-04T17:58:26.851Z,3.15
2022-08-04T18:03:52.809Z,4.05
2022-08-04T18:06:23.391Z,3.05
2022-08-04T18:08:58.188Z,3.17
2022-08-04T18:11:29.785Z,5.78
2022-08-04T18:14:09.801Z,4.13
2022-08-04T18:16:45.295Z,4.75
2022-08-04T18:19:19.038Z,4.00
2022-08-04T18:21:59.585Z,3.70
2022-08-04T18:24:35.292Z,2.92
2022-08-04T18:27:22.324Z,3.70
2022-08-04T18:30:33.347Z,3.30
2022-08-04T18:32:56.426Z,3.83
2022-08-04T18:36:31.285Z,1.73
2022-08-04T18:38:22.662Z,5.40
2022-08-04T18:40:52.800Z,4.25
2022-08-04T18:43:28.547Z,3.38
2022-08-04T18:45:59.558Z,4.88
2022-08-04T18:48:35.912Z,5.32
2022-08-04T18:51:10.801Z,3.60
2022-08-04T18:56:36.723Z,3.70
2022-08-04T18:59:10.251Z,5.78
2022-08-04T19:02:16.352Z,4.38
2022-08-04T19:04:33.098Z,5.72
2022-08-04T19:07:24.479Z,5.25
2022-08-04T19:09:51.933Z,4.75
2022-08-04T19:12:26.675Z,6.10
2022-08-04T19:14:57.995Z,3.88
2022-08-04T19:17:52.525Z,4.20
2022-08-04T19:20:16.049Z,2.88
2022-08-04T19:24:28.648Z,3.00
2022-08-04T19:25:58.618Z,4.38
2022-08-04T19:28:33.944Z,5.95
2022-08-04T19:31:01.782Z,5.18
2022-08-04T19:33:30.438Z,3.83
2022-08-04T19:36:20.860Z,4.40
2022-08-04T19:38:58.147Z,5.60
2022-08-04T19:41:26.499Z,2.45
2022-08-04T19:43:54.470Z,3.33
2022-08-04T19:46:21.525Z,4.32
2022-08-04T19:48:59.021Z,4.90
2022-08-04T19:54:02.446Z,3.38
2022-08-04T19:56:39.855Z,4.43
2022-08-04T19:59:10.914Z,2.42
2022-08-04T20:01:44.184Z,6.78
2022-08-04T20:04:12.833Z,3.83
2022-08-04T20:06:39.735Z,4.43
2022-08-04T20:09:24.459Z,2.45
2022-08-04T20:11:54.155Z,2.63
2022-08-04T20:14:32.525Z,3.97
2022-08-04T20:17:10.299Z,5.63
2022-08-04T20:19:38.061Z,5.57
2022-08-04T20:22:05.120Z,3.03
2022-08-04T20:24:46.921Z,6.38
2022-08-04T20:27:18.731Z,5.03
2022-08-04T20:29:49.890Z,6.53
2022-08-04T20:32:22.201Z,3.40
2022-08-04T20:34:53.307Z,4.13
2022-08-04T20:37:23.395Z,4.38
2022-08-04T20:39:56.094Z,5.97
2022-08-04T20:42:27.141Z,4.15
2022-08-04T20:45:02.593Z,3.85
2022-08-04T20:47:35.069Z,4.10
2022-08-04T20:50:09.480Z,4.30
2022-08-04T20:52:37.209Z,4.20
2022-08-04T20:55:05.565Z,3.53
2022-08-04T20:57:48.615Z,4.53
2022-08-04T21:00:17.645Z,20.55
2022-08-04T21:02:59.356Z,6.55
2022-08-04T21:05:26.697Z,7.70
2022-08-04T21:07:56.641Z,13.30
2022-08-04T21:10:27.043Z,5.82
2022-08-04T21:12:57.927Z,5.30
2022-08-04T21:15:26.293Z,8.48
2022-08-04T21:18:13.480Z,5.13
2022-08-04T21:20:42.858Z,6.05
2022-08-04T21:23:12.127Z,8.07
2022-08-04T21:25:42.781Z,9.02
2022-08-04T21:28:10.599Z,7.28
2022-08-04T21:30:54.592Z,5.85
2022-08-04T21:33:50.238Z,9.27
2022-08-04T21:36:16.102Z,7.55
2022-08-04T21:38:51.062Z,8.27
2022-08-04T21:41:20.383Z,8.35
2022-08-04T21:43:55.851Z,7.57
2022-08-04T21:46:22.668Z,6.68
2022-08-04T21:48:49.593Z,5.63
2022-08-04T21:51:21.772Z,6.85
2022-08-04T21:54:14.924Z,7.80
2022-08-04T21:56:51.570Z,5.35
2022-08-04T21:59:23.743Z,6.10
2022-08-04T22:01:57.916Z,6.43
2022-08-04T22:04:29.435Z,8.50
2022-08-04T22:06:56.135Z,6.10
2022-08-04T22:09:22.693Z,6.63
2022-08-04T22:11:51.791Z,7.53
2022-08-04T22:14:29.493Z,10.70
2022-08-04T22:17:02.624Z,8.23
2022-08-04T22:19:40.916Z,5.85
2022-08-04T22:22:25.217Z,5.60
2022-08-04T22:24:55.139Z,6.57
2022-08-04T22:27:43.868Z,6.50
2022-08-04T22:30:17.103Z,5.75
2022-08-04T22:33:03.469Z,7.65
2022-08-04T22:38:24.233Z,10.10
2022-08-04T22:41:03.709Z,5.32
2022-08-04T22:43:34.645Z,5.72
2022-08-04T22:46:12.100Z,4.20
2022-08-04T22:48:39.882Z,4.55
2022-08-04T22:51:10.082Z,6.38
2022-08-04T22:53:41.949Z,7.28
2022-08-04T22:56:16.383Z,6.00
2022-08-04T22:59:03.099Z,5.47
2022-08-04T23:01:58.090Z,7.43
2022-08-04T23:04:16.874Z,7.43
2022-08-04T23:06:43.492Z,6.80
2022-08-04T23:09:15.911Z,6.97
2022-08-04T23:11:43.399Z,7.38
2022-08-04T23:14:12.493Z,5.22
2022-08-04T23:16:40.643Z,5.25
2022-08-04T23:19:12.197Z,7.30
2022-08-04T23:21:47.641Z,6.93
2022-08-04T23:24:30.404Z,6.82
2022-08-04T23:26:58.990Z,5.45
2022-08-04T23:29:25.493Z,6.53
2022-08-04T23:32:00.254Z,7.25
2022-08-04T23:34:31.419Z,5.45
2022-08-04T23:36:59.103Z,6.10
2022-08-04T23:39:26.215Z,6.20
2022-08-04T23:42:15.110Z,6.50
2022-08-04T23:44:48.614Z,6.00
2022-08-04T23:48:15.738Z,5.82
2022-08-04T23:50:01.763Z,8.45
2022-08-04T23:52:30.914Z,5.72
2022-08-04T23:55:01.104Z,6.82
2022-08-04T23:58:02.614Z,6.38
